Plaza Tower, Tennessee
Current Conditions -  °F | °C
As of 5:53 AM on Wednesday 22 Oct 2014 (Local Time) from KTYS Reporting Station
Clear Clear  
Wind Chill: 40°   Ceiling: Unl
Heat Index: 43°   Visibility: 10mi
Dew Point: 40°   Wind: 5mph
Humidity: 89%   Direction: 60°ENE
Pressure: 30.13"   Gusts: NA
Location:  35.9605°N, 83.9208°W
Report Text: KTYS 220953Z 06004KT 10SM CLR 06/04 A3013 RMK AO2 SLP200 T00610044
Loading
Personal Weather Stations






























Interactive Weather Map
Tropical Storm Tracking
New forecast layout! Learn more

10-Day Weather Forecast

Advertisements
Track Severe Weather on mobile